N108JA EFHK-EBBR
Flight info
| Callsign | N108JA |
|---|---|
| Flight time | 2h 32m |
| Altitude | 43000 |
| Route | NUNTO Y369 REKDO DCT KOSKA DCT BEDOS DCT AMRAK DCT EEL DCT EKNON DCT SUSET/N0430F410 Z310 BATAK/N0396F190 Z311 BEKEM |
| Aircraft | E55P/M-SBDFGHJ2RWY/LB2 |
Departure
| Time | 2026-05-07 18:16 |
|---|---|
| Airport | Helsinki Vantaa Airport (EFHK) |
Arrival
| Time | 2026-05-07 20:48 |
|---|---|
| Airport | Brussels Airport (EBBR) |
| Time | Latitude | Longitude | Altitude | Speed | Heading |
|---|---|---|---|---|---|
| 2026-05-07 17:48 | 60.30726 | 24.94213 | 174 ft | 0 kts | 96° |
| 2026-05-07 18:03 | 60.30726 | 24.94214 | 174 ft | 0 kts | 96° |
| 2026-05-07 18:03 | 60.30729 | 24.94225 | 174 ft | 1 kts | 34° |
| 2026-05-07 18:03 | 60.30740 | 24.94208 | 174 ft | 2 kts | 272° |
| 2026-05-07 18:04 | 60.30739 | 24.94165 | 174 ft | 3 kts | 268° |
| 2026-05-07 18:04 | 60.30736 | 24.94082 | 173 ft | 7 kts | 253° |
| 2026-05-07 18:04 | 60.30740 | 24.93990 | 172 ft | 7 kts | 321° |
| 2026-05-07 18:04 | 60.30806 | 24.93953 | 169 ft | 12 kts | 353° |
| 2026-05-07 18:05 | 60.30888 | 24.93907 | 165 ft | 13 kts | 331° |
| 2026-05-07 18:05 | 60.30957 | 24.93784 | 160 ft | 10 kts | 319° |
| 2026-05-07 18:05 | 60.30983 | 24.93738 | 159 ft | 0 kts | 317° |
| 2026-05-07 18:05 | 60.30985 | 24.93734 | 159 ft | 0 kts | 317° |
| 2026-05-07 18:08 | 60.30991 | 24.93723 | 159 ft | 3 kts | 316° |
| 2026-05-07 18:09 | 60.31019 | 24.93670 | 158 ft | 8 kts | 318° |
| 2026-05-07 18:09 | 60.31065 | 24.93586 | 160 ft | 10 kts | 317° |
| 2026-05-07 18:09 | 60.31128 | 24.93470 | 164 ft | 13 kts | 317° |
| 2026-05-07 18:09 | 60.31185 | 24.93363 | 171 ft | 7 kts | 316° |
| 2026-05-07 18:10 | 60.31211 | 24.93314 | 174 ft | 4 kts | 317° |
| 2026-05-07 18:10 | 60.31245 | 24.93253 | 177 ft | 8 kts | 318° |
| 2026-05-07 18:10 | 60.31287 | 24.93177 | 181 ft | 7 kts | 317° |
| 2026-05-07 18:10 | 60.31330 | 24.93094 | 183 ft | 9 kts | 317° |
| 2026-05-07 18:11 | 60.31389 | 24.92986 | 185 ft | 12 kts | 317° |
| 2026-05-07 18:11 | 60.31455 | 24.92860 | 185 ft | 13 kts | 316° |
| 2026-05-07 18:11 | 60.31525 | 24.92735 | 185 ft | 14 kts | 317° |
| 2026-05-07 18:11 | 60.31602 | 24.92591 | 182 ft | 16 kts | 316° |
| 2026-05-07 18:12 | 60.31694 | 24.92419 | 178 ft | 19 kts | 317° |
| 2026-05-07 18:12 | 60.31789 | 24.92291 | 176 ft | 14 kts | 10° |
| 2026-05-07 18:12 | 60.31861 | 24.92428 | 177 ft | 14 kts | 47° |
| 2026-05-07 18:12 | 60.31924 | 24.92569 | 179 ft | 13 kts | 47° |
| 2026-05-07 18:13 | 60.31994 | 24.92720 | 179 ft | 15 kts | 48° |
| 2026-05-07 18:13 | 60.32067 | 24.92880 | 179 ft | 15 kts | 47° |
| 2026-05-07 18:13 | 60.32142 | 24.93046 | 179 ft | 16 kts | 47° |
| 2026-05-07 18:13 | 60.32216 | 24.93175 | 183 ft | 13 kts | 2° |
| 2026-05-07 18:14 | 60.32293 | 24.93071 | 182 ft | 14 kts | 317° |
| 2026-05-07 18:14 | 60.32373 | 24.92920 | 183 ft | 15 kts | 316° |
| 2026-05-07 18:14 | 60.32399 | 24.92810 | 183 ft | 7 kts | 224° |
| 2026-05-07 18:14 | 60.32375 | 24.92759 | 183 ft | 1 kts | 227° |
| 2026-05-07 18:15 | 60.32369 | 24.92745 | 183 ft | 1 kts | 227° |
| 2026-05-07 18:15 | 60.32283 | 24.92557 | 182 ft | 50 kts | 227° |
| 2026-05-07 18:15 | 60.31878 | 24.91665 | 169 ft | 119 kts | 226° |
| 2026-05-07 18:15 | 60.31324 | 24.90395 | 699 ft | 122 kts | 231° |
| 2026-05-07 18:16 | 60.30762 | 24.89048 | 1321 ft | 129 kts | 233° |
| 2026-05-07 18:16 | 60.30421 | 24.87496 | 2036 ft | 126 kts | 257° |
| 2026-05-07 18:16 | 60.30173 | 24.85757 | 2583 ft | 139 kts | 261° |
| 2026-05-07 18:16 | 60.30105 | 24.83610 | 2972 ft | 168 kts | 276° |
| 2026-05-07 18:17 | 60.30222 | 24.81319 | 3848 ft | 166 kts | 281° |
| 2026-05-07 18:17 | 60.30411 | 24.79083 | 4665 ft | 167 kts | 284° |
| 2026-05-07 18:17 | 60.30313 | 24.76751 | 5350 ft | 183 kts | 248° |
| 2026-05-07 18:17 | 60.29743 | 24.74455 | 6157 ft | 186 kts | 250° |
| 2026-05-07 18:18 | 60.29237 | 24.72060 | 6926 ft | 191 kts | 251° |
| 2026-05-07 18:18 | 60.28723 | 24.69571 | 7688 ft | 198 kts | 251° |
| 2026-05-07 18:18 | 60.28190 | 24.66967 | 8439 ft | 207 kts | 250° |
| 2026-05-07 18:18 | 60.27650 | 24.64331 | 9355 ft | 209 kts | 250° |
| 2026-05-07 18:19 | 60.27090 | 24.61592 | 10117 ft | 216 kts | 250° |
| 2026-05-07 18:19 | 60.26525 | 24.58839 | 10949 ft | 219 kts | 250° |
| 2026-05-07 18:19 | 60.25951 | 24.56047 | 11887 ft | 217 kts | 251° |
| 2026-05-07 18:19 | 60.25386 | 24.53291 | 12850 ft | 214 kts | 251° |
| 2026-05-07 18:20 | 60.24824 | 24.50550 | 13698 ft | 215 kts | 252° |
| 2026-05-07 18:20 | 60.24242 | 24.47833 | 14520 ft | 217 kts | 248° |
| 2026-05-07 18:20 | 60.23514 | 24.45177 | 15373 ft | 218 kts | 247° |
| 2026-05-07 18:20 | 60.22809 | 24.42533 | 16245 ft | 217 kts | 247° |
| 2026-05-07 18:21 | 60.22099 | 24.39898 | 17071 ft | 218 kts | 247° |
| 2026-05-07 18:21 | 60.21394 | 24.37278 | 17889 ft | 217 kts | 248° |
| 2026-05-07 18:21 | 60.20684 | 24.34640 | 18665 ft | 218 kts | 247° |
| 2026-05-07 18:21 | 60.19963 | 24.31967 | 19362 ft | 221 kts | 247° |
| 2026-05-07 18:22 | 60.19195 | 24.29094 | 19573 ft | 244 kts | 246° |
| 2026-05-07 18:22 | 60.18650 | 24.27080 | 19772 ft | 256 kts | 246° |
| 2026-05-07 18:22 | 60.17468 | 24.22712 | 20270 ft | 275 kts | 245° |
| 2026-05-07 18:22 | 60.16532 | 24.19262 | 20659 ft | 288 kts | 245° |
| 2026-05-07 18:23 | 60.15568 | 24.15721 | 21258 ft | 292 kts | 245° |
| 2026-05-07 18:23 | 60.14614 | 24.12219 | 22004 ft | 290 kts | 245° |
| 2026-05-07 18:23 | 60.13655 | 24.08700 | 22694 ft | 290 kts | 245° |
| 2026-05-07 18:23 | 60.12696 | 24.05178 | 23280 ft | 291 kts | 245° |
| 2026-05-07 18:24 | 60.11713 | 24.01582 | 23827 ft | 295 kts | 245° |
| 2026-05-07 18:24 | 60.10737 | 23.98021 | 24404 ft | 296 kts | 245° |
| 2026-05-07 18:24 | 60.09750 | 23.94422 | 24944 ft | 298 kts | 245° |
| 2026-05-07 18:24 | 60.08747 | 23.90762 | 25470 ft | 301 kts | 245° |
| 2026-05-07 18:25 | 60.07647 | 23.87217 | 26052 ft | 302 kts | 242° |
| 2026-05-07 18:25 | 60.06750 | 23.83500 | 26668 ft | 297 kts | 248° |
| 2026-05-07 18:25 | 60.05828 | 23.79833 | 27277 ft | 297 kts | 246° |
| 2026-05-07 18:25 | 60.04891 | 23.76166 | 27861 ft | 296 kts | 246° |
| 2026-05-07 18:26 | 60.03946 | 23.72530 | 28403 ft | 297 kts | 246° |
| 2026-05-07 18:26 | 60.03003 | 23.68923 | 28950 ft | 296 kts | 246° |
| 2026-05-07 18:26 | 60.02048 | 23.65293 | 29535 ft | 295 kts | 246° |
| 2026-05-07 18:26 | 60.01097 | 23.61690 | 30067 ft | 295 kts | 246° |
| 2026-05-07 18:27 | 60.00154 | 23.58106 | 30583 ft | 294 kts | 246° |
| 2026-05-07 18:27 | 59.99205 | 23.54519 | 31082 ft | 294 kts | 246° |
| 2026-05-07 18:27 | 59.98255 | 23.50941 | 31561 ft | 293 kts | 246° |
| 2026-05-07 18:27 | 59.97303 | 23.47341 | 31979 ft | 294 kts | 246° |
| 2026-05-07 18:28 | 59.96350 | 23.43759 | 32386 ft | 295 kts | 246° |
| 2026-05-07 18:28 | 59.95388 | 23.40142 | 32838 ft | 294 kts | 246° |
| 2026-05-07 18:28 | 59.94429 | 23.36553 | 33181 ft | 294 kts | 246° |
| 2026-05-07 18:28 | 59.93475 | 23.32977 | 33508 ft | 295 kts | 245° |
| 2026-05-07 18:29 | 59.92519 | 23.29412 | 33799 ft | 296 kts | 245° |
| 2026-05-07 18:29 | 59.91543 | 23.25763 | 34090 ft | 297 kts | 244° |
| 2026-05-07 18:29 | 59.90583 | 23.22185 | 34395 ft | 298 kts | 244° |
| 2026-05-07 18:29 | 59.89607 | 23.18555 | 34674 ft | 298 kts | 244° |
| 2026-05-07 18:30 | 59.88638 | 23.14955 | 34963 ft | 298 kts | 244° |
| 2026-05-07 18:30 | 59.87653 | 23.11302 | 35253 ft | 298 kts | 244° |
| 2026-05-07 18:30 | 59.86677 | 23.07688 | 35518 ft | 298 kts | 244° |
| 2026-05-07 18:30 | 59.85695 | 23.04063 | 35785 ft | 298 kts | 244° |
| 2026-05-07 18:31 | 59.84726 | 23.00476 | 36055 ft | 299 kts | 244° |
| 2026-05-07 18:31 | 59.83732 | 22.96829 | 36279 ft | 300 kts | 244° |
| 2026-05-07 18:31 | 59.82760 | 22.93250 | 36520 ft | 300 kts | 244° |
| 2026-05-07 18:31 | 59.81769 | 22.89614 | 36762 ft | 300 kts | 244° |
| 2026-05-07 18:32 | 59.80775 | 22.85962 | 36997 ft | 301 kts | 244° |
| 2026-05-07 18:32 | 59.79785 | 22.82349 | 37174 ft | 302 kts | 244° |
| 2026-05-07 18:32 | 59.78782 | 22.78676 | 37373 ft | 303 kts | 244° |
| 2026-05-07 18:32 | 59.77783 | 22.75035 | 37583 ft | 303 kts | 244° |
| 2026-05-07 18:33 | 59.76770 | 22.71347 | 37771 ft | 303 kts | 244° |
| 2026-05-07 18:33 | 59.75763 | 22.67679 | 37949 ft | 304 kts | 243° |
| 2026-05-07 18:33 | 59.74757 | 22.64029 | 38108 ft | 305 kts | 244° |
| 2026-05-07 18:33 | 59.73743 | 22.60349 | 38281 ft | 306 kts | 243° |
| 2026-05-07 18:34 | 59.72725 | 22.56659 | 38478 ft | 307 kts | 243° |
| 2026-05-07 18:34 | 59.71741 | 22.53109 | 38666 ft | 307 kts | 243° |
| 2026-05-07 18:34 | 59.70718 | 22.49412 | 38849 ft | 308 kts | 243° |
| 2026-05-07 18:34 | 59.69692 | 22.45718 | 39036 ft | 308 kts | 243° |
| 2026-05-07 18:35 | 59.68652 | 22.41980 | 39241 ft | 308 kts | 243° |
| 2026-05-07 18:35 | 59.67626 | 22.38291 | 39423 ft | 308 kts | 243° |
| 2026-05-07 18:35 | 59.66595 | 22.34596 | 39594 ft | 308 kts | 242° |
| 2026-05-07 18:35 | 59.65557 | 22.30891 | 39757 ft | 310 kts | 242° |
| 2026-05-07 18:36 | 59.64529 | 22.27215 | 39931 ft | 310 kts | 242° |
| 2026-05-07 18:36 | 59.63485 | 22.23488 | 40103 ft | 310 kts | 242° |
| 2026-05-07 18:36 | 59.62444 | 22.19778 | 40267 ft | 310 kts | 242° |
| 2026-05-07 18:36 | 59.61391 | 22.16034 | 40434 ft | 311 kts | 242° |
| 2026-05-07 18:37 | 59.60348 | 22.12331 | 40584 ft | 311 kts | 242° |
| 2026-05-07 18:37 | 59.59300 | 22.08612 | 40716 ft | 312 kts | 242° |
| 2026-05-07 18:37 | 59.58237 | 22.04854 | 40847 ft | 313 kts | 242° |
| 2026-05-07 18:37 | 59.57183 | 22.01132 | 40998 ft | 313 kts | 242° |
| 2026-05-07 18:38 | 59.56123 | 21.97391 | 41150 ft | 313 kts | 242° |
| 2026-05-07 18:38 | 59.55072 | 21.93687 | 41287 ft | 313 kts | 242° |
| 2026-05-07 18:38 | 59.54002 | 21.89927 | 41421 ft | 314 kts | 242° |
| 2026-05-07 18:38 | 59.52935 | 21.86183 | 41551 ft | 314 kts | 242° |
| 2026-05-07 18:39 | 59.51876 | 21.82472 | 41701 ft | 314 kts | 242° |
| 2026-05-07 18:39 | 59.50801 | 21.78711 | 41825 ft | 314 kts | 242° |
| 2026-05-07 18:39 | 59.49736 | 21.74994 | 41938 ft | 314 kts | 242° |
| 2026-05-07 18:39 | 59.48664 | 21.71253 | 42069 ft | 314 kts | 242° |
| 2026-05-07 18:40 | 59.47595 | 21.67531 | 42198 ft | 315 kts | 242° |
| 2026-05-07 18:40 | 59.46518 | 21.63788 | 42318 ft | 315 kts | 242° |
| 2026-05-07 18:40 | 59.45449 | 21.60077 | 42417 ft | 315 kts | 242° |
| 2026-05-07 18:40 | 59.44368 | 21.56325 | 42543 ft | 315 kts | 243° |
| 2026-05-07 18:41 | 59.43407 | 21.52483 | 42610 ft | 316 kts | 240° |
| 2026-05-07 18:41 | 59.42251 | 21.48836 | 42716 ft | 316 kts | 240° |
| 2026-05-07 18:41 | 59.41151 | 21.45134 | 42817 ft | 317 kts | 241° |
| 2026-05-07 18:41 | 59.40053 | 21.41392 | 42932 ft | 316 kts | 242° |
| 2026-05-07 18:42 | 59.38968 | 21.37676 | 43043 ft | 316 kts | 242° |
| 2026-05-07 18:42 | 59.36780 | 21.30180 | 43127 ft | 321 kts | 241° |
| 2026-05-07 18:43 | 59.34543 | 21.22525 | 43131 ft | 328 kts | 241° |
| 2026-05-07 18:43 | 59.32259 | 21.14736 | 43135 ft | 335 kts | 240° |
| 2026-05-07 18:44 | 59.29922 | 21.06791 | 43137 ft | 342 kts | 240° |
| 2026-05-07 18:44 | 59.27527 | 20.98677 | 43140 ft | 348 kts | 240° |
| 2026-05-07 18:45 | 59.25090 | 20.90457 | 43137 ft | 355 kts | 240° |
| 2026-05-07 18:45 | 59.22610 | 20.82116 | 43139 ft | 361 kts | 241° |
| 2026-05-07 18:46 | 59.20074 | 20.73618 | 43142 ft | 366 kts | 240° |
| 2026-05-07 18:46 | 59.17587 | 20.64880 | 43142 ft | 371 kts | 243° |
| 2026-05-07 18:47 | 59.14967 | 20.56224 | 43145 ft | 376 kts | 241° |
| 2026-05-07 18:47 | 59.12360 | 20.47385 | 43147 ft | 381 kts | 241° |
| 2026-05-07 18:48 | 59.09714 | 20.38408 | 43140 ft | 386 kts | 241° |
| 2026-05-07 18:48 | 59.07027 | 20.29330 | 43148 ft | 391 kts | 240° |
| 2026-05-07 18:49 | 59.04317 | 20.20198 | 43154 ft | 395 kts | 240° |
| 2026-05-07 18:49 | 59.01554 | 20.10920 | 43143 ft | 400 kts | 240° |
| 2026-05-07 18:50 | 58.98782 | 20.01663 | 43144 ft | 403 kts | 240° |
| 2026-05-07 18:50 | 58.95970 | 19.92300 | 43148 ft | 402 kts | 240° |
| 2026-05-07 18:51 | 58.93166 | 19.83007 | 43148 ft | 400 kts | 240° |
| 2026-05-07 18:51 | 58.90369 | 19.73764 | 43148 ft | 402 kts | 240° |
| 2026-05-07 18:52 | 58.87539 | 19.64458 | 43146 ft | 404 kts | 240° |
| 2026-05-07 18:52 | 58.84700 | 19.55159 | 43149 ft | 406 kts | 240° |
| 2026-05-07 18:53 | 58.81822 | 19.45763 | 43154 ft | 406 kts | 240° |
| 2026-05-07 18:53 | 58.78970 | 19.36507 | 43151 ft | 403 kts | 240° |
| 2026-05-07 18:54 | 58.76113 | 19.27258 | 43152 ft | 400 kts | 239° |
| 2026-05-07 18:54 | 58.73284 | 19.18129 | 43153 ft | 399 kts | 240° |
| 2026-05-07 18:55 | 58.70442 | 19.09001 | 43156 ft | 401 kts | 239° |
| 2026-05-07 18:55 | 58.67565 | 18.99799 | 43138 ft | 405 kts | 240° |
| 2026-05-07 18:56 | 58.64657 | 18.90533 | 43148 ft | 409 kts | 239° |
| 2026-05-07 18:56 | 58.61716 | 18.81196 | 43139 ft | 409 kts | 239° |
| 2026-05-07 18:57 | 58.58791 | 18.71952 | 43148 ft | 404 kts | 239° |
| 2026-05-07 18:57 | 58.55895 | 18.62832 | 43139 ft | 399 kts | 239° |
| 2026-05-07 18:58 | 58.53028 | 18.53843 | 43138 ft | 396 kts | 240° |
| 2026-05-07 18:58 | 58.50177 | 18.44931 | 43145 ft | 399 kts | 239° |
| 2026-05-07 18:59 | 58.47268 | 18.35874 | 43136 ft | 405 kts | 240° |
| 2026-05-07 18:59 | 58.44292 | 18.26642 | 43136 ft | 411 kts | 239° |
| 2026-05-07 19:00 | 58.41315 | 18.17446 | 43143 ft | 410 kts | 238° |
| 2026-05-07 19:00 | 58.38334 | 18.08278 | 43142 ft | 405 kts | 238° |
| 2026-05-07 19:01 | 58.35404 | 17.99298 | 43144 ft | 398 kts | 238° |
| 2026-05-07 19:01 | 58.32499 | 17.90429 | 43136 ft | 395 kts | 239° |
| 2026-05-07 19:02 | 58.29587 | 17.81566 | 43140 ft | 399 kts | 239° |
| 2026-05-07 19:02 | 58.26632 | 17.72614 | 43137 ft | 407 kts | 239° |
| 2026-05-07 19:03 | 58.23611 | 17.63493 | 43141 ft | 412 kts | 239° |
| 2026-05-07 19:03 | 58.20571 | 17.54350 | 43135 ft | 411 kts | 239° |
| 2026-05-07 19:04 | 58.17548 | 17.45293 | 43131 ft | 404 kts | 238° |
| 2026-05-07 19:04 | 58.14581 | 17.36434 | 43129 ft | 398 kts | 238° |
| 2026-05-07 19:05 | 58.11641 | 17.27698 | 43133 ft | 396 kts | 238° |
| 2026-05-07 19:05 | 58.08678 | 17.18919 | 43131 ft | 401 kts | 238° |
| 2026-05-07 19:06 | 58.05662 | 17.10015 | 43133 ft | 408 kts | 238° |
| 2026-05-07 19:06 | 58.01055 | 16.96480 | 43131 ft | 410 kts | 238° |
| 2026-05-07 19:07 | 57.97990 | 16.87522 | 43127 ft | 404 kts | 238° |
| 2026-05-07 19:07 | 57.94968 | 16.78717 | 43127 ft | 398 kts | 238° |
| 2026-05-07 19:08 | 57.91981 | 16.70049 | 43126 ft | 398 kts | 238° |
| 2026-05-07 19:08 | 57.88964 | 16.61325 | 43132 ft | 406 kts | 238° |
| 2026-05-07 19:09 | 57.85862 | 16.52386 | 43137 ft | 414 kts | 238° |
| 2026-05-07 19:09 | 57.82709 | 16.43335 | 43133 ft | 415 kts | 238° |
| 2026-05-07 19:10 | 57.79563 | 16.34345 | 43123 ft | 409 kts | 237° |
| 2026-05-07 19:10 | 57.76477 | 16.25555 | 43121 ft | 401 kts | 237° |
| 2026-05-07 19:11 | 57.73457 | 16.16978 | 43119 ft | 396 kts | 237° |
| 2026-05-07 19:11 | 57.70428 | 16.08413 | 43120 ft | 399 kts | 237° |
| 2026-05-07 19:12 | 57.67336 | 15.99698 | 43119 ft | 408 kts | 237° |
| 2026-05-07 19:12 | 57.64184 | 15.90848 | 43120 ft | 415 kts | 237° |
| 2026-05-07 19:13 | 57.60970 | 15.81861 | 43119 ft | 414 kts | 237° |
| 2026-05-07 19:13 | 57.57816 | 15.73073 | 43114 ft | 406 kts | 237° |
| 2026-05-07 19:14 | 57.54720 | 15.64475 | 43110 ft | 398 kts | 237° |
| 2026-05-07 19:14 | 57.51658 | 15.56005 | 43112 ft | 397 kts | 237° |
| 2026-05-07 19:15 | 57.48570 | 15.47486 | 43116 ft | 404 kts | 237° |
| 2026-05-07 19:15 | 57.45427 | 15.38849 | 43116 ft | 413 kts | 237° |
| 2026-05-07 19:16 | 57.42235 | 15.30118 | 43116 ft | 418 kts | 236° |
| 2026-05-07 19:16 | 57.39022 | 15.21357 | 43113 ft | 415 kts | 236° |
| 2026-05-07 19:17 | 57.35790 | 15.12633 | 43110 ft | 407 kts | 234° |
| 2026-05-07 19:17 | 57.32354 | 15.04466 | 43113 ft | 400 kts | 233° |
| 2026-05-07 19:18 | 57.28962 | 14.96442 | 43112 ft | 398 kts | 233° |
| 2026-05-07 19:18 | 57.25541 | 14.88375 | 43113 ft | 404 kts | 233° |
| 2026-05-07 19:19 | 57.22057 | 14.80185 | 43113 ft | 413 kts | 233° |
| 2026-05-07 19:19 | 57.18480 | 14.71806 | 43104 ft | 418 kts | 233° |
| 2026-05-07 19:20 | 57.14902 | 14.63458 | 43101 ft | 415 kts | 233° |
| 2026-05-07 19:20 | 57.11362 | 14.55225 | 43094 ft | 407 kts | 233° |
| 2026-05-07 19:21 | 57.07897 | 14.47191 | 43085 ft | 401 kts | 233° |
| 2026-05-07 19:21 | 57.04465 | 14.39257 | 43080 ft | 401 kts | 232° |
| 2026-05-07 19:22 | 57.00950 | 14.31168 | 43082 ft | 409 kts | 232° |
| 2026-05-07 19:22 | 56.97401 | 14.23019 | 43075 ft | 418 kts | 232° |
| 2026-05-07 19:23 | 56.93751 | 14.14674 | 43070 ft | 420 kts | 232° |
| 2026-05-07 19:23 | 56.90152 | 14.06470 | 43065 ft | 414 kts | 232° |
| 2026-05-07 19:24 | 56.86597 | 13.98393 | 43071 ft | 405 kts | 232° |
| 2026-05-07 19:24 | 56.83093 | 13.90459 | 43071 ft | 400 kts | 232° |
| 2026-05-07 19:25 | 56.79601 | 13.82582 | 43071 ft | 404 kts | 232° |
| 2026-05-07 19:25 | 56.76038 | 13.74569 | 43082 ft | 413 kts | 232° |
| 2026-05-07 19:26 | 56.72391 | 13.66394 | 43084 ft | 420 kts | 231° |
| 2026-05-07 19:26 | 56.68738 | 13.58232 | 43085 ft | 418 kts | 231° |
| 2026-05-07 19:27 | 56.65114 | 13.50165 | 43081 ft | 411 kts | 231° |
| 2026-05-07 19:27 | 56.61539 | 13.42234 | 43090 ft | 403 kts | 231° |
| 2026-05-07 19:28 | 56.58020 | 13.34451 | 43099 ft | 402 kts | 231° |
| 2026-05-07 19:28 | 56.54441 | 13.26561 | 43106 ft | 410 kts | 231° |
| 2026-05-07 19:29 | 56.50794 | 13.18546 | 43113 ft | 418 kts | 231° |
| 2026-05-07 19:29 | 56.47090 | 13.10437 | 43115 ft | 420 kts | 231° |
| 2026-05-07 19:30 | 56.43416 | 13.02417 | 43114 ft | 414 kts | 231° |
| 2026-05-07 19:30 | 56.39795 | 12.94539 | 43119 ft | 407 kts | 230° |
| 2026-05-07 19:31 | 56.36211 | 12.86769 | 43120 ft | 404 kts | 230° |
| 2026-05-07 19:31 | 56.32597 | 12.78962 | 43129 ft | 408 kts | 231° |
| 2026-05-07 19:32 | 56.28945 | 12.71095 | 43129 ft | 417 kts | 231° |
| 2026-05-07 19:32 | 56.25220 | 12.63100 | 43126 ft | 421 kts | 231° |
| 2026-05-07 19:33 | 56.21490 | 12.55114 | 43129 ft | 417 kts | 231° |
| 2026-05-07 19:33 | 56.17784 | 12.47211 | 43123 ft | 409 kts | 231° |
| 2026-05-07 19:34 | 56.14170 | 12.39527 | 43123 ft | 403 kts | 231° |
| 2026-05-07 19:34 | 56.10585 | 12.31930 | 43129 ft | 404 kts | 230° |
| 2026-05-07 19:35 | 56.06994 | 12.24346 | 43131 ft | 413 kts | 230° |
| 2026-05-07 19:35 | 56.03235 | 12.16431 | 43131 ft | 421 kts | 230° |
| 2026-05-07 19:36 | 55.99438 | 12.08461 | 43129 ft | 422 kts | 230° |
| 2026-05-07 19:36 | 55.95691 | 12.00625 | 43126 ft | 415 kts | 230° |
| 2026-05-07 19:37 | 55.91985 | 11.92900 | 43124 ft | 406 kts | 230° |
| 2026-05-07 19:37 | 55.88347 | 11.85334 | 43130 ft | 402 kts | 230° |
| 2026-05-07 19:38 | 55.84700 | 11.77780 | 43133 ft | 407 kts | 230° |
| 2026-05-07 19:38 | 55.80973 | 11.70083 | 43135 ft | 417 kts | 230° |
| 2026-05-07 19:39 | 55.77388 | 11.62703 | 43132 ft | 423 kts | 230° |
| 2026-05-07 19:39 | 55.73725 | 11.55184 | 43128 ft | 423 kts | 230° |
| 2026-05-07 19:40 | 55.67742 | 11.42957 | 43127 ft | 412 kts | 230° |
| 2026-05-07 19:40 | 55.65883 | 11.39169 | 43127 ft | 409 kts | 230° |
| 2026-05-07 19:41 | 55.62183 | 11.31649 | 43129 ft | 405 kts | 229° |
| 2026-05-07 19:41 | 55.58476 | 11.24137 | 43131 ft | 408 kts | 229° |
| 2026-05-07 19:42 | 55.54741 | 11.16593 | 43135 ft | 416 kts | 229° |
| 2026-05-07 19:42 | 55.50906 | 11.08873 | 43132 ft | 422 kts | 229° |
| 2026-05-07 19:43 | 55.47024 | 11.01084 | 43131 ft | 422 kts | 229° |
| 2026-05-07 19:43 | 55.43199 | 10.93433 | 43129 ft | 416 kts | 229° |
| 2026-05-07 19:44 | 55.39422 | 10.85901 | 43130 ft | 408 kts | 229° |
| 2026-05-07 19:44 | 55.35697 | 10.78496 | 43127 ft | 406 kts | 229° |
| 2026-05-07 19:45 | 55.31942 | 10.71054 | 43129 ft | 410 kts | 229° |
| 2026-05-07 19:45 | 55.28142 | 10.63548 | 43128 ft | 418 kts | 229° |
| 2026-05-07 19:46 | 55.24289 | 10.55960 | 43126 ft | 423 kts | 229° |
| 2026-05-07 19:46 | 55.20389 | 10.48303 | 43124 ft | 421 kts | 229° |
| 2026-05-07 19:47 | 55.16524 | 10.40741 | 43121 ft | 414 kts | 229° |
| 2026-05-07 19:47 | 55.12718 | 10.33319 | 43125 ft | 408 kts | 228° |
| 2026-05-07 19:48 | 55.08973 | 10.26033 | 43132 ft | 407 kts | 228° |
| 2026-05-07 19:48 | 55.05164 | 10.18648 | 43132 ft | 413 kts | 228° |
| 2026-05-07 19:49 | 55.01282 | 10.11144 | 43134 ft | 421 kts | 228° |
| 2026-05-07 19:49 | 54.97348 | 10.03561 | 43137 ft | 424 kts | 228° |
| 2026-05-07 19:50 | 54.93437 | 9.96051 | 43134 ft | 421 kts | 228° |
| 2026-05-07 19:50 | 54.89547 | 9.88603 | 43136 ft | 413 kts | 228° |
| 2026-05-07 19:51 | 54.85726 | 9.81313 | 43135 ft | 408 kts | 228° |
| 2026-05-07 19:51 | 54.81939 | 9.73998 | 43130 ft | 409 kts | 232° |
| 2026-05-07 19:52 | 54.78188 | 9.66611 | 43141 ft | 416 kts | 229° |
| 2026-05-07 19:52 | 54.74342 | 9.59064 | 43137 ft | 424 kts | 229° |
| 2026-05-07 19:53 | 54.70429 | 9.51378 | 43132 ft | 425 kts | 229° |
| 2026-05-07 19:53 | 54.66573 | 9.43826 | 43125 ft | 419 kts | 229° |
| 2026-05-07 19:54 | 54.62761 | 9.36383 | 43119 ft | 411 kts | 229° |
| 2026-05-07 19:54 | 54.59011 | 9.29085 | 43124 ft | 406 kts | 228° |
| 2026-05-07 19:55 | 54.55271 | 9.21827 | 43132 ft | 409 kts | 228° |
| 2026-05-07 19:55 | 54.51482 | 9.14495 | 43136 ft | 418 kts | 228° |
| 2026-05-07 19:56 | 54.47595 | 9.06996 | 43134 ft | 426 kts | 228° |
| 2026-05-07 19:56 | 54.43658 | 8.99426 | 43128 ft | 427 kts | 228° |
| 2026-05-07 19:57 | 54.39733 | 8.91904 | 43130 ft | 420 kts | 228° |
| 2026-05-07 19:57 | 54.35880 | 8.84538 | 43130 ft | 411 kts | 228° |
| 2026-05-07 19:58 | 54.32137 | 8.77406 | 43133 ft | 405 kts | 228° |
| 2026-05-07 19:58 | 54.28415 | 8.70336 | 43133 ft | 405 kts | 228° |
| 2026-05-07 19:59 | 54.24625 | 8.63158 | 43134 ft | 413 kts | 228° |
| 2026-05-07 19:59 | 54.20777 | 8.55890 | 43135 ft | 423 kts | 228° |
| 2026-05-07 20:00 | 54.16824 | 8.48448 | 43130 ft | 428 kts | 228° |
| 2026-05-07 20:00 | 54.12849 | 8.40985 | 43129 ft | 425 kts | 228° |
| 2026-05-07 20:01 | 54.08935 | 8.33662 | 43129 ft | 418 kts | 227° |
| 2026-05-07 20:01 | 54.05099 | 8.26504 | 43129 ft | 410 kts | 227° |
| 2026-05-07 20:02 | 54.01303 | 8.19442 | 43129 ft | 406 kts | 227° |
| 2026-05-07 20:02 | 53.97499 | 8.12388 | 43129 ft | 408 kts | 227° |
| 2026-05-07 20:03 | 53.93654 | 8.05277 | 43129 ft | 416 kts | 227° |
| 2026-05-07 20:03 | 53.89737 | 7.98055 | 43130 ft | 424 kts | 227° |
| 2026-05-07 20:04 | 53.85736 | 7.90697 | 43127 ft | 426 kts | 227° |
| 2026-05-07 20:04 | 53.81739 | 7.83370 | 43122 ft | 422 kts | 227° |
| 2026-05-07 20:05 | 53.77800 | 7.76174 | 43119 ft | 415 kts | 227° |
| 2026-05-07 20:05 | 53.73939 | 7.69138 | 43118 ft | 409 kts | 227° |
| 2026-05-07 20:06 | 53.70092 | 7.62150 | 43117 ft | 409 kts | 227° |
| 2026-05-07 20:06 | 53.66219 | 7.55134 | 43115 ft | 415 kts | 227° |
| 2026-05-07 20:07 | 53.62259 | 7.47981 | 43113 ft | 421 kts | 227° |
| 2026-05-07 20:07 | 53.58255 | 7.40771 | 43111 ft | 423 kts | 227° |
| 2026-05-07 20:08 | 53.54278 | 7.33630 | 43110 ft | 420 kts | 226° |
| 2026-05-07 20:08 | 53.50308 | 7.26523 | 43113 ft | 414 kts | 226° |
| 2026-05-07 20:09 | 53.46415 | 7.19574 | 43112 ft | 410 kts | 226° |
| 2026-05-07 20:10 | 53.40569 | 7.09175 | 43110 ft | 412 kts | 226° |
| 2026-05-07 20:10 | 53.36628 | 7.02191 | 43111 ft | 418 kts | 226° |
| 2026-05-07 20:11 | 53.32597 | 6.95067 | 43110 ft | 422 kts | 226° |
| 2026-05-07 20:11 | 53.28583 | 6.87993 | 43106 ft | 421 kts | 226° |
| 2026-05-07 20:12 | 53.24592 | 6.80983 | 43098 ft | 417 kts | 226° |
| 2026-05-07 20:12 | 53.20628 | 6.74038 | 43098 ft | 412 kts | 226° |
| 2026-05-07 20:13 | 53.16709 | 6.67192 | 43098 ft | 410 kts | 226° |
| 2026-05-07 20:13 | 53.12733 | 6.60499 | 43109 ft | 412 kts | 223° |
| 2026-05-07 20:14 | 53.08591 | 6.53839 | 43098 ft | 418 kts | 225° |
| 2026-05-07 20:14 | 53.04445 | 6.47082 | 43096 ft | 422 kts | 225° |
| 2026-05-07 20:15 | 53.00286 | 6.40312 | 43091 ft | 422 kts | 225° |
| 2026-05-07 20:15 | 52.96241 | 6.33747 | 43089 ft | 418 kts | 224° |
| 2026-05-07 20:16 | 52.92156 | 6.27135 | 43087 ft | 413 kts | 224° |
| 2026-05-07 20:16 | 52.88164 | 6.20688 | 43090 ft | 410 kts | 224° |
| 2026-05-07 20:17 | 52.84195 | 6.14297 | 43093 ft | 410 kts | 224° |
| 2026-05-07 20:17 | 52.80168 | 6.07833 | 43097 ft | 413 kts | 224° |
| 2026-05-07 20:18 | 52.76177 | 6.01225 | 43098 ft | 417 kts | 228° |
| 2026-05-07 20:18 | 52.74006 | 5.98175 | 43122 ft | 418 kts | 216° |
| 2026-05-07 20:18 | 52.71744 | 5.95214 | 43103 ft | 420 kts | 220° |
| 2026-05-07 20:19 | 52.67333 | 5.89038 | 43100 ft | 421 kts | 221° |
| 2026-05-07 20:19 | 52.62926 | 5.82815 | 43099 ft | 419 kts | 221° |
| 2026-05-07 20:20 | 52.58537 | 5.76623 | 43095 ft | 414 kts | 221° |
| 2026-05-07 20:20 | 52.54205 | 5.70526 | 43091 ft | 411 kts | 221° |
| 2026-05-07 20:21 | 52.49882 | 5.64459 | 43087 ft | 411 kts | 221° |
| 2026-05-07 20:21 | 52.45540 | 5.58382 | 43086 ft | 414 kts | 221° |
| 2026-05-07 20:22 | 52.41121 | 5.52213 | 43082 ft | 418 kts | 221° |
| 2026-05-07 20:22 | 52.36700 | 5.46060 | 43081 ft | 419 kts | 221° |
| 2026-05-07 20:23 | 52.32303 | 5.39957 | 43078 ft | 418 kts | 221° |
| 2026-05-07 20:23 | 52.27895 | 5.33856 | 43077 ft | 415 kts | 220° |
| 2026-05-07 20:24 | 52.23532 | 5.27831 | 43078 ft | 413 kts | 220° |
| 2026-05-07 20:24 | 52.19170 | 5.21823 | 43077 ft | 412 kts | 220° |
| 2026-05-07 20:25 | 52.14807 | 5.15831 | 43075 ft | 414 kts | 220° |
| 2026-05-07 20:25 | 52.12496 | 5.13034 | 43055 ft | 415 kts | 208° |
| 2026-05-07 20:25 | 52.09830 | 5.11306 | 43094 ft | 414 kts | 201° |
| 2026-05-07 20:25 | 52.07104 | 5.09601 | 42487 ft | 425 kts | 202° |
| 2026-05-07 20:26 | 52.04375 | 5.07901 | 41914 ft | 430 kts | 202° |
| 2026-05-07 20:26 | 52.01586 | 5.06168 | 41329 ft | 434 kts | 202° |
| 2026-05-07 20:26 | 51.98752 | 5.04411 | 40710 ft | 439 kts | 202° |
| 2026-05-07 20:26 | 51.95908 | 5.02651 | 40059 ft | 433 kts | 202° |
| 2026-05-07 20:27 | 51.93158 | 5.00954 | 39446 ft | 425 kts | 202° |
| 2026-05-07 20:27 | 51.90413 | 4.99261 | 38758 ft | 418 kts | 202° |
| 2026-05-07 20:27 | 51.87757 | 4.97625 | 38123 ft | 413 kts | 202° |
| 2026-05-07 20:27 | 51.85082 | 4.95980 | 37491 ft | 408 kts | 202° |
| 2026-05-07 20:28 | 51.82483 | 4.94383 | 36864 ft | 404 kts | 202° |
| 2026-05-07 20:28 | 51.79892 | 4.92793 | 36228 ft | 399 kts | 202° |
| 2026-05-07 20:28 | 51.77326 | 4.91219 | 35583 ft | 395 kts | 202° |
| 2026-05-07 20:28 | 51.74776 | 4.89658 | 34927 ft | 391 kts | 202° |
| 2026-05-07 20:29 | 51.72268 | 4.88124 | 34191 ft | 387 kts | 202° |
| 2026-05-07 20:29 | 51.69761 | 4.86594 | 33407 ft | 383 kts | 202° |
| 2026-05-07 20:29 | 51.67301 | 4.85093 | 32625 ft | 379 kts | 202° |
| 2026-05-07 20:29 | 51.64846 | 4.83598 | 31829 ft | 375 kts | 203° |
| 2026-05-07 20:30 | 51.62443 | 4.82135 | 31038 ft | 371 kts | 203° |
| 2026-05-07 20:30 | 51.60084 | 4.80699 | 30181 ft | 367 kts | 203° |
| 2026-05-07 20:30 | 51.57739 | 4.79240 | 29311 ft | 362 kts | 207° |
| 2026-05-07 20:30 | 51.55730 | 4.76869 | 28442 ft | 354 kts | 226° |
| 2026-05-07 20:31 | 51.53980 | 4.74185 | 27585 ft | 350 kts | 224° |
| 2026-05-07 20:31 | 51.52220 | 4.71533 | 26722 ft | 347 kts | 225° |
| 2026-05-07 20:31 | 51.50479 | 4.68914 | 25865 ft | 344 kts | 225° |
| 2026-05-07 20:31 | 51.48764 | 4.66336 | 25014 ft | 341 kts | 224° |
| 2026-05-07 20:32 | 51.47043 | 4.63755 | 24154 ft | 338 kts | 224° |
| 2026-05-07 20:32 | 51.45362 | 4.61237 | 23301 ft | 335 kts | 224° |
| 2026-05-07 20:32 | 51.43674 | 4.58711 | 22450 ft | 332 kts | 224° |
| 2026-05-07 20:32 | 51.42097 | 4.56085 | 21607 ft | 329 kts | 226° |
| 2026-05-07 20:33 | 51.40377 | 4.53678 | 20751 ft | 326 kts | 223° |
| 2026-05-07 20:33 | 51.38733 | 4.51282 | 19923 ft | 323 kts | 224° |
| 2026-05-07 20:33 | 51.37087 | 4.48861 | 18999 ft | 324 kts | 224° |
| 2026-05-07 20:33 | 51.35455 | 4.46438 | 18075 ft | 324 kts | 224° |
| 2026-05-07 20:34 | 51.33820 | 4.44006 | 17154 ft | 323 kts | 224° |
| 2026-05-07 20:34 | 51.32182 | 4.41570 | 16236 ft | 322 kts | 224° |
| 2026-05-07 20:34 | 51.30573 | 4.39182 | 15344 ft | 320 kts | 224° |
| 2026-05-07 20:34 | 51.28988 | 4.36830 | 14859 ft | 306 kts | 224° |
| 2026-05-07 20:35 | 51.27321 | 4.34775 | 13919 ft | 309 kts | 205° |
| 2026-05-07 20:35 | 51.25243 | 4.34183 | 13022 ft | 311 kts | 175° |
| 2026-05-07 20:35 | 51.23226 | 4.35341 | 12125 ft | 312 kts | 146° |
| 2026-05-07 20:35 | 51.21841 | 4.37899 | 11223 ft | 313 kts | 116° |
| 2026-05-07 20:36 | 51.21050 | 4.41113 | 10371 ft | 309 kts | 117° |
| 2026-05-07 20:36 | 51.20097 | 4.44065 | 9807 ft | 298 kts | 116° |
| 2026-05-07 20:36 | 51.19142 | 4.46953 | 9246 ft | 288 kts | 117° |
| 2026-05-07 20:36 | 51.18485 | 4.49883 | 8786 ft | 276 kts | 101° |
| 2026-05-07 20:37 | 51.17980 | 4.52733 | 8413 ft | 267 kts | 107° |
| 2026-05-07 20:37 | 51.17446 | 4.55550 | 7872 ft | 267 kts | 107° |
| 2026-05-07 20:37 | 51.16905 | 4.58346 | 7338 ft | 266 kts | 107° |
| 2026-05-07 20:37 | 51.16368 | 4.61120 | 6812 ft | 262 kts | 106° |
| 2026-05-07 20:38 | 51.15832 | 4.63873 | 6308 ft | 256 kts | 107° |
| 2026-05-07 20:38 | 51.15316 | 4.66527 | 5813 ft | 252 kts | 108° |
| 2026-05-07 20:38 | 51.14805 | 4.69149 | 5320 ft | 248 kts | 107° |
| 2026-05-07 20:38 | 51.14303 | 4.71736 | 4854 ft | 244 kts | 107° |
| 2026-05-07 20:39 | 51.13804 | 4.74290 | 4394 ft | 241 kts | 107° |
| 2026-05-07 20:39 | 51.13310 | 4.76819 | 3934 ft | 238 kts | 107° |
| 2026-05-07 20:39 | 51.12819 | 4.79328 | 3481 ft | 235 kts | 107° |
| 2026-05-07 20:39 | 51.12343 | 4.81753 | 3127 ft | 227 kts | 107° |
| 2026-05-07 20:40 | 51.11538 | 4.83774 | 3065 ft | 211 kts | 143° |
| 2026-05-07 20:40 | 51.10203 | 4.84276 | 3067 ft | 198 kts | 188° |
| 2026-05-07 20:40 | 51.08911 | 4.83731 | 3059 ft | 183 kts | 193° |
| 2026-05-07 20:40 | 51.07764 | 4.83074 | 3057 ft | 171 kts | 207° |
| 2026-05-07 20:41 | 51.06877 | 4.81953 | 3116 ft | 161 kts | 227° |
| 2026-05-07 20:41 | 51.06287 | 4.80415 | 3077 ft | 162 kts | 249° |
| 2026-05-07 20:41 | 51.06025 | 4.78693 | 3070 ft | 159 kts | 257° |
| 2026-05-07 20:41 | 51.05465 | 4.77249 | 3066 ft | 154 kts | 214° |
| 2026-05-07 20:42 | 51.04493 | 4.76658 | 3079 ft | 150 kts | 191° |
| 2026-05-07 20:42 | 51.03496 | 4.76131 | 3077 ft | 155 kts | 204° |
| 2026-05-07 20:42 | 51.02566 | 4.75192 | 3079 ft | 160 kts | 215° |
| 2026-05-07 20:42 | 51.01698 | 4.74055 | 3030 ft | 167 kts | 219° |
| 2026-05-07 20:43 | 51.00845 | 4.72801 | 2836 ft | 168 kts | 222° |
| 2026-05-07 20:43 | 51.00006 | 4.71507 | 2627 ft | 165 kts | 223° |
| 2026-05-07 20:43 | 50.99195 | 4.70233 | 2422 ft | 163 kts | 223° |
| 2026-05-07 20:43 | 50.98405 | 4.68983 | 2220 ft | 161 kts | 223° |
| 2026-05-07 20:44 | 50.97620 | 4.67737 | 2085 ft | 155 kts | 223° |
| 2026-05-07 20:44 | 50.96887 | 4.66571 | 2085 ft | 141 kts | 223° |
| 2026-05-07 20:44 | 50.96199 | 4.65475 | 2073 ft | 140 kts | 223° |
| 2026-05-07 20:44 | 50.95538 | 4.64319 | 2062 ft | 140 kts | 231° |
| 2026-05-07 20:45 | 50.95011 | 4.62993 | 1890 ft | 142 kts | 239° |
| 2026-05-07 20:45 | 50.94577 | 4.61672 | 1695 ft | 130 kts | 243° |
| 2026-05-07 20:45 | 50.94198 | 4.60424 | 1520 ft | 120 kts | 244° |
| 2026-05-07 20:45 | 50.93856 | 4.59259 | 1370 ft | 116 kts | 244° |
| 2026-05-07 20:46 | 50.93517 | 4.58090 | 1231 ft | 117 kts | 245° |
| 2026-05-07 20:46 | 50.93178 | 4.56920 | 1082 ft | 116 kts | 244° |
| 2026-05-07 20:46 | 50.92844 | 4.55763 | 932 ft | 116 kts | 245° |
| 2026-05-07 20:46 | 50.92508 | 4.54600 | 777 ft | 115 kts | 245° |
| 2026-05-07 20:47 | 50.92176 | 4.53455 | 622 ft | 114 kts | 245° |
| 2026-05-07 20:47 | 50.91851 | 4.52337 | 473 ft | 112 kts | 246° |
| 2026-05-07 20:47 | 50.91524 | 4.51217 | 316 ft | 110 kts | 244° |
| 2026-05-07 20:47 | 50.91211 | 4.50128 | 177 ft | 107 kts | 244° |
| 2026-05-07 20:48 | 50.90916 | 4.49106 | 108 ft | 95 kts | 245° |
| 2026-05-07 20:48 | 50.90666 | 4.48240 | 103 ft | 74 kts | 245° |
| 2026-05-07 20:48 | 50.90464 | 4.47551 | 103 ft | 64 kts | 245° |
| 2026-05-07 20:48 | 50.90310 | 4.47020 | 106 ft | 37 kts | 245° |
| 2026-05-07 20:49 | 50.90183 | 4.46778 | 110 ft | 23 kts | 222° |
| 2026-05-07 20:49 | 50.90112 | 4.46695 | 113 ft | 8 kts | 216° |
| 2026-05-07 20:49 | 50.90076 | 4.46654 | 114 ft | 5 kts | 216° |
| 2026-05-07 20:49 | 50.90035 | 4.46608 | 115 ft | 9 kts | 216° |
| 2026-05-07 20:50 | 50.89987 | 4.46519 | 116 ft | 12 kts | 247° |
| 2026-05-07 20:50 | 50.89946 | 4.46377 | 117 ft | 15 kts | 245° |
| 2026-05-07 20:50 | 50.89900 | 4.46218 | 118 ft | 16 kts | 245° |
| 2026-05-07 20:50 | 50.89850 | 4.46044 | 119 ft | 17 kts | 246° |
| 2026-05-07 20:51 | 50.89798 | 4.45866 | 119 ft | 18 kts | 246° |
| 2026-05-07 20:51 | 50.89751 | 4.45728 | 119 ft | 12 kts | 206° |
| 2026-05-07 20:51 | 50.89686 | 4.45797 | 119 ft | 13 kts | 115° |
| 2026-05-07 20:51 | 50.89645 | 4.45935 | 119 ft | 15 kts | 115° |
| 2026-05-07 20:52 | 50.89597 | 4.46094 | 119 ft | 16 kts | 115° |
| 2026-05-07 20:52 | 50.89581 | 4.46279 | 119 ft | 18 kts | 78° |
| 2026-05-07 20:52 | 50.89632 | 4.46477 | 119 ft | 20 kts | 65° |
| 2026-05-07 20:52 | 50.89685 | 4.46662 | 119 ft | 16 kts | 66° |
| 2026-05-07 20:53 | 50.89731 | 4.46819 | 121 ft | 14 kts | 65° |
| 2026-05-07 20:53 | 50.89693 | 4.46892 | 122 ft | 10 kts | 182° |
| 2026-05-07 20:53 | 50.89620 | 4.46888 | 123 ft | 10 kts | 182° |
| 2026-05-07 20:53 | 50.89581 | 4.46810 | 122 ft | 9 kts | 254° |
| 2026-05-07 20:54 | 50.89555 | 4.46779 | 121 ft | 3 kts | 105° |
| 2026-05-07 20:54 | 50.89558 | 4.46806 | 122 ft | 1 kts | 84° |
| 2026-05-07 20:54 | 50.89559 | 4.46819 | 122 ft | 0 kts | 91° |